Time;durP1;ratioP1;P1;durP2;ratioP2;P2;SDS_P1;SDS_P2;PMS_P1;PMS_P2;Temp;Humidity;BMP_temperature;BMP_pressure;BME280_temperature;BME280_humidity;BME280_pressure;Samples;Min_cycle;Max_cycle;Signal;HPM_P1;HPM_P2
2021/07/12 00:00:08;;;;;;;3.50;3.30;;;26.80;84.40;;;;;;6186352;23;20487;-94
2021/07/12 00:02:37;;;;;;;3.80;3.60;;;26.80;84.40;;;;;;6185639;23;20443;-94
2021/07/12 00:05:05;;;;;;;3.50;3.20;;;26.80;84.40;;;;;;6185407;23;20426;-93
2021/07/12 00:07:32;;;;;;;3.57;3.37;;;26.80;85.30;;;;;;6185698;23;20489;-93
2021/07/12 00:10:00;;;;;;;3.77;3.57;;;26.80;84.50;;;;;;6186052;23;20644;-93
2021/07/12 00:12:27;;;;;;;4.00;3.80;;;26.80;84.50;;;;;;6185555;23;20416;-93
2021/07/12 00:14:55;;;;;;;3.90;3.70;;;26.80;84.50;;;;;;6186001;23;20506;-93
2021/07/12 00:17:21;;;;;;;3.67;3.47;;;26.80;84.50;;;;;;6186827;23;20733;-93
2021/07/12 00:19:48;;;;;;;4.20;3.90;;;26.80;84.50;;;;;;6186524;23;20415;-93
2021/07/12 00:22:15;;;;;;;3.77;3.57;;;26.80;84.50;;;;;;6186567;23;20956;-94
2021/07/12 00:24:42;;;;;;;3.50;3.30;;;26.80;84.50;;;;;;6186678;23;20498;-94
2021/07/12 00:27:10;;;;;;;3.50;3.30;;;26.80;84.50;;;;;;6186345;23;20434;-93
2021/07/12 00:29:37;;;;;;;3.60;3.40;;;26.70;84.40;;;;;;6186718;23;20742;-93
2021/07/12 00:32:05;;;;;;;3.80;3.60;;;26.70;84.50;;;;;;6186511;23;20407;-93
2021/07/12 00:34:32;;;;;;;3.83;3.63;;;26.70;84.50;;;;;;6186599;23;20409;-93
2021/07/12 00:36:59;;;;;;;3.67;3.47;;;26.70;84.50;;;;;;6186912;23;20420;-93
2021/07/12 00:39:26;;;;;;;3.83;3.63;;;26.70;84.60;;;;;;6186403;23;20729;-93
2021/07/12 00:41:54;;;;;;;3.50;3.30;;;26.70;84.60;;;;;;6174765;23;20457;-93
2021/07/12 00:44:22;;;;;;;3.60;3.40;;;26.70;84.60;;;;;;6186595;23;20509;-93
2021/07/12 00:46:49;;;;;;;4.20;3.90;;;26.70;84.60;;;;;;6187741;23;20475;-94
2021/07/12 00:49:16;;;;;;;3.90;3.70;;;26.70;84.60;;;;;;6186682;23;20417;-93
2021/07/12 00:51:43;;;;;;;4.50;4.20;;;26.70;84.60;;;;;;6186599;23;20494;-93
2021/07/12 00:54:10;;;;;;;4.10;3.90;;;26.90;84.80;;;;;;6187793;23;20589;-93
2021/07/12 00:56:37;;;;;;;4.30;4.00;;;26.70;84.60;;;;;;6194172;23;20495;-94
2021/07/12 00:59:04;;;;;;;3.83;3.63;;;26.70;84.60;;;;;;6159995;23;1091839;-93
2021/07/12 01:01:33;;;;;;;3.90;3.70;;;26.70;84.60;;;;;;6209234;23;20203;-93
2021/07/12 01:03:59;;;;;;;3.77;3.57;;;26.70;84.70;;;;;;6207115;23;20406;-93
2021/07/12 01:06:26;;;;;;;3.80;3.60;;;26.70;84.70;;;;;;6208844;23;20430;-93
2021/07/12 01:08:53;;;;;;;4.50;4.20;;;26.70;84.70;;;;;;6213872;23;20751;-93
2021/07/12 01:11:35;;;;;;;3.50;3.30;;;26.70;84.70;;;;;;6215254;23;20395;-92
2021/07/12 01:14:07;;;;;;;3.70;3.50;;;26.70;84.70;;;;;;6215063;23;20418;-93
2021/07/12 01:17:00;;;;;;;3.73;3.53;;;26.70;84.70;;;;;;6213152;23;20399;-93
2021/07/12 01:20:05;;;;;;;4.07;3.87;;;26.70;84.60;;;;;;6212942;23;20395;-94
2021/07/12 01:22:53;;;;;;;3.70;3.50;;;26.70;84.70;;;;;;6210746;23;20503;-93
2021/07/12 01:26:03;;;;;;;4.37;4.07;;;26.70;84.70;;;;;;6211627;23;20410;-92
2021/07/12 01:29:07;;;;;;;4.30;4.10;;;26.70;84.70;;;;;;6208901;23;20434;-93
2021/07/12 01:32:17;;;;;;;4.03;3.83;;;26.70;84.70;;;;;;6209766;23;20426;-93
2021/07/12 01:34:55;;;;;;;3.60;3.40;;;26.70;84.80;;;;;;6210938;23;20406;-93
2021/07/12 01:37:29;;;;;;;3.70;3.50;;;26.70;84.90;;;;;;6211217;23;20421;-93
2021/07/12 01:40:03;;;;;;;4.03;3.73;;;26.70;84.90;;;;;;6212011;23;20414;-94
2021/07/12 01:42:36;;;;;;;4.57;4.27;;;26.70;84.90;;;;;;6186666;23;20426;-94
2021/07/12 01:45:09;;;;;;;4.50;4.20;;;26.70;84.90;;;;;;6213184;23;20372;-93
2021/07/12 01:47:42;;;;;;;4.03;3.83;;;26.70;84.80;;;;;;6205827;23;20399;-94
2021/07/12 01:50:18;;;;;;;4.40;4.10;;;26.70;84.80;;;;;;6201995;23;20457;-94
2021/07/12 01:52:56;;;;;;;3.93;3.73;;;26.70;84.80;;;;;;6209750;23;20391;-93
2021/07/12 01:55:27;;;;;;;3.70;3.50;;;26.70;84.80;;;;;;6211876;23;20402;-93
2021/07/12 01:57:59;;;;;;;4.17;3.87;;;26.70;84.80;;;;;;6211242;23;20426;-93
2021/07/12 02:00:27;;;;;;;3.60;3.40;;;26.70;84.70;;;;;;6212987;23;20382;-93
2021/07/12 02:02:58;;;;;;;3.83;3.57;;;26.70;84.80;;;;;;6200381;23;20446;-93
2021/07/12 02:05:30;;;;;;;3.50;3.30;;;26.70;84.70;;;;;;6212938;23;20411;-94
2021/07/12 02:07:58;;;;;;;4.10;3.83;;;26.70;84.70;;;;;;6212710;23;20418;-93
2021/07/12 02:10:27;;;;;;;4.37;4.10;;;26.70;84.70;;;;;;6211588;23;20417;-94
2021/07/12 02:12:55;;;;;;;3.50;3.30;;;26.70;84.70;;;;;;6212483;23;20427;-93
2021/07/12 02:15:23;;;;;;;5.07;4.77;;;26.70;84.70;;;;;;6211631;23;20431;-94
2021/07/12 02:17:52;;;;;;;4.20;4.00;;;26.70;85.20;;;;;;6212137;23;20410;-93
2021/07/12 02:20:20;;;;;;;4.20;4.00;;;26.70;84.70;;;;;;6212023;23;20387;-93
2021/07/12 02:22:51;;;;;;;3.80;3.60;;;26.70;84.70;;;;;;6211711;23;20492;-93
2021/07/12 02:25:19;;;;;;;4.10;3.90;;;26.70;84.70;;;;;;6212705;23;20378;-92
2021/07/12 02:27:48;;;;;;;4.27;3.97;;;26.70;84.70;;;;;;6212392;23;20430;-94
2021/07/12 02:30:17;;;;;;;4.63;4.33;;;26.70;84.70;;;;;;6212979;23;20410;-93
2021/07/12 02:32:47;;;;;;;3.50;3.30;;;26.70;84.70;;;;;;6212393;23;20485;-93
2021/07/12 02:35:15;;;;;;;4.27;3.97;;;26.70;84.70;;;;;;6213009;23;20410;-93
2021/07/12 02:37:44;;;;;;;3.67;3.47;;;26.70;84.60;;;;;;6212592;23;20403;-93
2021/07/12 02:40:15;;;;;;;4.70;4.40;;;26.70;84.60;;;;;;6213039;23;20391;-93
2021/07/12 02:42:46;;;;;;;3.87;3.67;;;26.70;84.70;;;;;;6211939;23;20438;-93
2021/07/12 02:45:13;;;;;;;3.90;3.70;;;26.70;84.60;;;;;;6211469;23;20388;-93
2021/07/12 02:47:41;;;;;;;3.83;3.63;;;26.70;84.60;;;;;;6213301;23;20395;-92
2021/07/12 02:50:10;;;;;;;4.63;4.33;;;26.70;84.60;;;;;;6214457;23;20395;-93
2021/07/12 02:52:42;;;;;;;3.83;3.63;;;26.70;84.60;;;;;;6214038;23;20402;-90
2021/07/12 02:55:10;;;;;;;3.60;3.40;;;26.70;84.60;;;;;;6214219;23;20421;-92
2021/07/12 02:57:38;;;;;;;4.53;4.23;;;26.70;84.60;;;;;;6213739;23;20399;-92
2021/07/12 03:00:08;;;;;;;4.40;4.00;;;26.70;84.50;;;;;;6213972;23;20430;-91
2021/07/12 03:02:35;;;;;;;3.50;3.30;;;26.70;84.50;;;;;;6208608;23;20450;-93
2021/07/12 03:05:03;;;;;;;2.80;2.67;;;26.70;84.50;;;;;;6190283;23;20497;-93
2021/07/12 03:07:34;;;;;;;3.53;3.33;;;26.70;84.50;;;;;;6187348;23;20506;-93
2021/07/12 03:10:08;;;;;;;3.33;3.13;;;26.70;84.40;;;;;;6187473;23;20775;-93
2021/07/12 03:12:52;;;;;;;3.87;3.57;;;26.70;84.50;;;;;;6187669;23;20445;-93
2021/07/12 03:15:22;;;;;;;3.90;3.70;;;26.70;84.30;;;;;;6188390;23;20405;-93
2021/07/12 03:17:52;;;;;;;3.50;3.20;;;26.70;84.40;;;;;;6186912;23;20430;-94
2021/07/12 03:20:20;;;;;;;3.60;3.40;;;26.70;84.40;;;;;;6187222;23;20422;-94
2021/07/12 03:22:53;;;;;;;3.97;3.77;;;26.60;84.20;;;;;;6186505;23;20446;-93
2021/07/12 03:25:27;;;;;;;4.03;3.83;;;26.70;84.30;;;;;;6186712;23;20434;-93
2021/07/12 03:27:59;;;;;;;3.80;3.60;;;26.60;84.20;;;;;;6186889;23;20396;-93
2021/07/12 03:30:27;;;;;;;3.20;3.00;;;26.70;84.20;;;;;;6186715;23;20403;-94
2021/07/12 03:32:56;;;;;;;3.67;3.47;;;26.60;84.20;;;;;;6187087;23;20435;-93
2021/07/12 03:35:26;;;;;;;4.87;4.57;;;26.70;84.20;;;;;;6187777;23;20969;-94
2021/07/12 03:37:53;;;;;;;3.80;3.60;;;26.60;84.20;;;;;;6187324;23;20443;-94
2021/07/12 03:40:20;;;;;;;4.40;4.10;;;26.60;84.20;;;;;;6186910;23;20415;-94
2021/07/12 03:42:48;;;;;;;3.77;3.57;;;26.60;84.20;;;;;;6186482;23;20454;-93
2021/07/12 03:45:16;;;;;;;3.37;3.17;;;26.60;84.10;;;;;;6186640;23;20740;-94
2021/07/12 03:47:45;;;;;;;3.60;3.40;;;26.70;84.20;;;;;;6186862;23;20406;-94
2021/07/12 03:50:14;;;;;;;3.40;3.20;;;26.70;84.20;;;;;;6162939;23;20407;-94
2021/07/12 03:52:43;;;;;;;3.50;3.30;;;26.60;84.10;;;;;;6188743;23;20445;-93
2021/07/12 03:55:12;;;;;;;3.70;3.50;;;26.60;84.10;;;;;;6189345;23;20411;-93
2021/07/12 03:57:39;;;;;;;3.67;3.37;;;26.60;84.10;;;;;;6197038;23;20426;-93
2021/07/12 04:00:08;;;;;;;4.00;3.80;;;26.70;84.10;;;;;;6205998;23;20423;-93
2021/07/12 04:02:37;;;;;;;3.80;3.57;;;26.70;84.10;;;;;;6198577;23;20447;-93
2021/07/12 04:05:05;;;;;;;3.07;2.87;;;26.60;84.10;;;;;;6188736;23;20485;-93
2021/07/12 04:07:31;;;;;;;3.47;3.27;;;26.60;84.10;;;;;;6188447;23;20798;-93
2021/07/12 04:09:58;;;;;;;3.83;3.63;;;26.60;84.10;;;;;;6189344;23;20486;-94
2021/07/12 04:12:25;;;;;;;4.10;3.90;;;26.60;84.10;;;;;;6189062;23;20960;-93
2021/07/12 04:14:53;;;;;;;3.30;3.10;;;26.60;84.10;;;;;;6188234;23;20430;-94
2021/07/12 04:17:21;;;;;;;3.20;3.00;;;26.70;84.10;;;;;;6162550;23;20411;-93
2021/07/12 04:19:49;;;;;;;3.50;3.30;;;26.60;84.10;;;;;;6189388;23;20411;-94
2021/07/12 04:22:16;;;;;;;3.33;3.13;;;26.70;84.10;;;;;;6189181;23;20808;-94
2021/07/12 04:24:43;;;;;;;4.00;3.70;;;26.70;84.20;;;;;;6188648;23;20409;-94
2021/07/12 04:27:09;;;;;;;3.47;3.27;;;26.70;84.20;;;;;;6188870;23;20440;-93
2021/07/12 04:29:36;;;;;;;3.40;3.20;;;26.70;84.20;;;;;;6188475;23;20410;-93
2021/07/12 04:32:04;;;;;;;3.63;3.43;;;26.60;84.10;;;;;;6189070;23;20883;-93
2021/07/12 04:34:31;;;;;;;3.70;3.50;;;26.60;84.10;;;;;;6188727;23;20417;-93
2021/07/12 04:36:59;;;;;;;3.60;3.40;;;26.60;84.20;;;;;;6188261;23;20490;-94
2021/07/12 04:39:26;;;;;;;3.50;3.30;;;26.60;84.10;;;;;;6189016;23;20489;-93
2021/07/12 04:41:54;;;;;;;3.60;3.40;;;26.60;84.10;;;;;;6189739;23;20410;-93
2021/07/12 04:44:21;;;;;;;3.63;3.43;;;26.60;84.10;;;;;;6189987;23;20422;-93
2021/07/12 04:46:48;;;;;;;3.57;3.37;;;26.60;84.10;;;;;;6188367;23;20402;-93
2021/07/12 04:49:15;;;;;;;3.40;3.20;;;26.60;84.10;;;;;;6189371;23;20488;-93
2021/07/12 04:51:42;;;;;;;3.80;3.60;;;26.60;84.20;;;;;;6190828;23;20879;-93
2021/07/12 04:54:11;;;;;;;3.90;3.70;;;26.70;84.10;;;;;;6188838;23;20901;-93
2021/07/12 04:56:38;;;;;;;2.70;2.60;;;26.60;84.10;;;;;;6188743;23;20901;-94
2021/07/12 04:59:07;;;;;;;3.70;3.50;;;26.60;84.10;;;;;;6188605;23;20434;-93
2021/07/12 05:01:34;;;;;;;3.17;2.97;;;26.60;84.20;;;;;;6188655;23;20414;-93
2021/07/12 05:04:03;;;;;;;3.67;3.47;;;26.60;84.10;;;;;;6188096;23;20482;-93
2021/07/12 05:06:30;;;;;;;3.43;3.23;;;26.60;84.20;;;;;;6188379;23;20973;-94
2021/07/12 05:08:58;;;;;;;3.83;3.63;;;26.60;84.20;;;;;;6188963;23;20414;-93
2021/07/12 05:11:27;;;;;;;3.43;3.13;;;26.60;84.20;;;;;;6189211;23;20725;-93
2021/07/12 05:13:54;;;;;;;4.03;3.70;;;26.70;84.30;;;;;;6187611;23;20430;-93
2021/07/12 05:16:21;;;;;;;4.17;3.90;;;26.60;84.30;;;;;;6188897;23;20400;-93
2021/07/12 05:18:49;;;;;;;3.80;3.60;;;26.60;84.30;;;;;;6188722;23;20501;-92
2021/07/12 05:21:15;;;;;;;4.40;4.20;;;26.60;84.30;;;;;;6188250;23;20487;-93
2021/07/12 05:23:42;;;;;;;3.87;3.57;;;26.70;84.40;;;;;;6188464;23;20522;-93
2021/07/12 05:26:09;;;;;;;3.43;3.23;;;26.60;84.30;;;;;;6189930;23;20414;-93
2021/07/12 05:28:38;;;;;;;3.67;3.47;;;26.60;84.30;;;;;;6192189;23;20415;-93
2021/07/12 05:31:05;;;;;;;4.13;3.83;;;26.60;84.30;;;;;;6165051;23;20406;-92
2021/07/12 05:33:32;;;;;;;3.70;3.50;;;26.60;84.30;;;;;;6191848;23;20975;-93
2021/07/12 05:35:59;;;;;;;3.93;3.73;;;26.60;84.30;;;;;;6188386;23;20466;-93
2021/07/12 05:38:26;;;;;;;3.57;3.37;;;26.60;84.70;;;;;;6188385;23;20411;-93
2021/07/12 05:40:53;;;;;;;3.30;3.10;;;26.60;84.30;;;;;;6187231;23;20433;-93
2021/07/12 05:43:20;;;;;;;3.60;3.40;;;26.70;84.40;;;;;;6161488;23;20941;-92
2021/07/12 05:45:48;;;;;;;3.90;3.60;;;26.60;84.30;;;;;;6189119;23;20474;-93
2021/07/12 05:48:16;;;;;;;3.97;3.77;;;26.70;84.40;;;;;;6188062;23;20430;-93
2021/07/12 05:50:42;;;;;;;3.63;3.43;;;26.60;84.30;;;;;;6187751;23;20513;-93
2021/07/12 05:53:09;;;;;;;3.93;3.73;;;26.60;84.30;;;;;;6188218;23;20508;-93
2021/07/12 05:55:36;;;;;;;3.70;3.50;;;26.60;84.30;;;;;;6187849;23;20406;-93
2021/07/12 05:58:04;;;;;;;3.80;3.60;;;26.70;84.40;;;;;;6188227;23;20450;-93
2021/07/12 06:00:30;;;;;;;3.70;3.50;;;26.60;84.30;;;;;;6188270;23;20414;-92
2021/07/12 06:02:59;;;;;;;3.53;3.33;;;26.60;84.30;;;;;;6200987;23;20462;-92
2021/07/12 06:05:25;;;;;;;3.40;3.20;;;26.70;84.30;;;;;;6214980;23;20416;-92
2021/07/12 06:07:52;;;;;;;3.80;3.50;;;26.60;85.00;;;;;;6214869;23;20434;-92
2021/07/12 06:10:19;;;;;;;3.47;3.27;;;26.70;84.30;;;;;;6209268;23;20407;-93
2021/07/12 06:12:47;;;;;;;3.63;3.43;;;26.70;84.30;;;;;;6192560;23;20464;-93
2021/07/12 06:15:14;;;;;;;3.50;3.30;;;26.70;84.30;;;;;;6165240;23;20403;-93
2021/07/12 06:17:42;;;;;;;3.70;3.50;;;26.70;84.30;;;;;;6189394;23;20738;-93
2021/07/12 06:20:14;;;;;;;4.20;3.90;;;26.70;84.20;;;;;;6188006;23;20426;-92
2021/07/12 06:22:41;;;;;;;3.70;3.50;;;26.70;84.20;;;;;;6187348;23;20415;-88
2021/07/12 06:25:09;;;;;;;7.00;6.50;;;26.70;84.20;;;;;;6187288;23;20780;-88
2021/07/12 06:27:35;;;;;;;8.50;7.87;;;26.70;84.30;;;;;;6186810;23;20485;-89
2021/07/12 06:30:02;;;;;;;8.30;7.50;;;26.50;84.20;;;;;;6187308;23;20429;-88
2021/07/12 06:32:29;;;;;;;8.90;8.20;;;26.50;84.70;;;;;;6186215;23;20502;-89
2021/07/12 06:34:59;;;;;;;8.67;7.93;;;26.40;85.10;;;;;;6184806;23;20410;-89
2021/07/12 06:37:29;;;;;;;8.77;7.87;;;26.40;85.20;;;;;;6186574;23;20695;-90
2021/07/12 06:39:56;;;;;;;8.23;7.43;;;26.50;85.30;;;;;;6186212;23;20403;-89
2021/07/12 06:42:23;;;;;;;7.13;6.43;;;26.40;85.50;;;;;;6186158;23;20434;-91
2021/07/12 06:44:50;;;;;;;8.37;7.00;;;26.40;85.00;;;;;;6186519;23;20486;-90
2021/07/12 06:47:17;;;;;;;7.40;6.90;;;26.40;84.70;;;;;;6186225;23;20418;-89
2021/07/12 06:49:43;;;;;;;6.57;6.07;;;26.50;84.70;;;;;;6186427;23;20403;-89
2021/07/12 06:52:10;;;;;;;6.77;6.27;;;26.50;84.70;;;;;;6186603;23;20406;-90
2021/07/12 06:54:38;;;;;;;6.40;5.90;;;26.60;84.60;;;;;;6186331;23;20407;-89
2021/07/12 06:57:06;;;;;;;6.20;5.70;;;26.50;84.40;;;;;;6186102;23;20508;-90
2021/07/12 06:59:32;;;;;;;6.93;6.33;;;26.50;84.40;;;;;;6185957;23;20444;-89
2021/07/12 07:01:59;;;;;;;6.77;5.90;;;26.60;84.70;;;;;;6186617;23;20406;-89
2021/07/12 07:04:26;;;;;;;6.77;5.93;;;26.50;84.30;;;;;;6186508;23;20446;-90
2021/07/12 07:06:53;;;;;;;6.10;5.57;;;26.50;84.30;;;;;;6186598;23;20403;-90
2021/07/12 07:09:19;;;;;;;6.67;6.17;;;26.50;84.50;;;;;;6186700;23;20420;-90
2021/07/12 07:11:48;;;;;;;5.90;5.50;;;26.50;84.20;;;;;;6186505;23;20402;-90
2021/07/12 07:14:14;;;;;;;6.00;5.40;;;26.50;83.60;;;;;;6186451;23;20417;-89
2021/07/12 07:16:42;;;;;;;6.03;5.63;;;26.50;83.50;;;;;;6186215;23;20509;-90
2021/07/12 07:19:09;;;;;;;5.13;4.73;;;26.50;83.60;;;;;;6186092;23;20893;-90
2021/07/12 07:21:36;;;;;;;5.40;5.03;;;26.50;83.70;;;;;;6186810;23;20429;-89
2021/07/12 07:24:04;;;;;;;5.57;5.17;;;26.50;83.80;;;;;;6186017;23;20449;-90
2021/07/12 07:26:31;;;;;;;5.40;5.00;;;26.60;84.00;;;;;;6186345;23;20414;-90
2021/07/12 07:28:59;;;;;;;6.47;5.50;;;26.50;83.90;;;;;;6186169;23;20404;-89
2021/07/12 07:31:26;;;;;;;7.67;5.03;;;26.70;84.30;;;;;;6186425;23;20746;-89
2021/07/12 07:33:53;;;;;;;5.43;5.07;;;26.60;84.60;;;;;;6186147;23;20490;-89
2021/07/12 07:36:20;;;;;;;5.63;5.20;;;26.70;84.60;;;;;;6186614;23;20414;-89
2021/07/12 07:38:47;;;;;;;4.43;4.13;;;26.60;84.50;;;;;;6185956;23;20410;-89
2021/07/12 07:41:14;;;;;;;5.13;4.63;;;26.60;84.60;;;;;;6185450;23;20414;-89
2021/07/12 07:43:40;;;;;;;5.57;5.07;;;26.60;84.60;;;;;;6185933;23;20454;-89
2021/07/12 07:46:08;;;;;;;7.23;4.60;;;26.60;84.70;;;;;;6185993;23;20426;-89
2021/07/12 07:48:35;;;;;;;7.40;4.80;;;26.60;84.80;;;;;;6185912;23;20490;-90
2021/07/12 07:51:02;;;;;;;5.10;4.67;;;26.60;84.60;;;;;;6186116;23;20411;-89
2021/07/12 07:53:29;;;;;;;4.83;4.53;;;26.70;84.50;;;;;;6185915;23;20404;-90
2021/07/12 07:55:56;;;;;;;5.20;4.90;;;26.70;84.50;;;;;;6186113;23;20394;-90
2021/07/12 07:58:23;;;;;;;4.77;4.47;;;26.70;84.30;;;;;;6186142;23;20426;-90
2021/07/12 08:00:50;;;;;;;4.37;4.07;;;26.70;84.20;;;;;;6186530;23;20403;-90
2021/07/12 08:03:18;;;;;;;4.90;4.50;;;26.70;84.70;;;;;;6186380;23;20440;-90
2021/07/12 08:05:44;;;;;;;4.90;4.50;;;26.70;83.80;;;;;;6186210;23;20412;-90
2021/07/12 08:08:11;;;;;;;4.40;4.03;;;26.70;83.70;;;;;;6185820;23;20729;-89
2021/07/12 08:10:38;;;;;;;7.40;4.40;;;26.70;83.60;;;;;;6186245;23;20726;-89
2021/07/12 08:13:07;;;;;;;5.13;4.73;;;26.70;83.50;;;;;;6185731;23;20972;-89
2021/07/12 08:15:34;;;;;;;27.17;7.60;;;26.50;83.10;;;;;;6186349;23;20477;-90
2021/07/12 08:18:00;;;;;;;20.00;4.77;;;26.70;83.10;;;;;;6186643;23;20409;-89
2021/07/12 08:20:29;;;;;;;8.00;4.13;;;26.70;83.20;;;;;;6186256;23;20917;-85
2021/07/12 08:22:55;;;;;;;12.80;5.23;;;26.80;83.20;;;;;;6186435;23;20398;-86
2021/07/12 08:25:23;;;;;;;8.50;4.80;;;26.70;83.20;;;;;;6186073;23;20447;-85
2021/07/12 08:27:51;;;;;;;3.70;3.40;;;26.70;84.00;;;;;;6186634;23;20800;-85
2021/07/12 08:30:19;;;;;;;7.33;4.70;;;26.70;83.10;;;;;;6186663;23;20402;-85
2021/07/12 08:32:46;;;;;;;10.10;4.87;;;26.70;83.10;;;;;;6186730;23;20408;-85
2021/07/12 08:35:14;;;;;;;5.37;4.30;;;26.70;83.10;;;;;;6187496;23;20407;-85
2021/07/12 08:37:49;;;;;;;10.03;4.43;;;26.70;83.10;;;;;;6189622;23;20738;-85
2021/07/12 08:40:18;;;;;;;5.63;4.60;;;26.90;83.20;;;;;;6191303;23;20394;-85
2021/07/12 08:42:46;;;;;;;5.70;5.20;;;26.70;83.10;;;;;;6189226;23;20436;-85
2021/07/12 08:45:14;;;;;;;4.40;4.00;;;26.70;83.00;;;;;;6188919;23;20453;-86
2021/07/12 08:47:41;;;;;;;6.70;5.13;;;26.70;83.10;;;;;;6187258;23;20921;-85
2021/07/12 08:50:09;;;;;;;3.83;3.50;;;26.80;83.20;;;;;;6187212;23;20410;-86
2021/07/12 08:52:36;;;;;;;4.20;3.80;;;26.80;83.20;;;;;;6187434;23;20406;-86
2021/07/12 08:55:05;;;;;;;4.90;4.37;;;26.80;83.10;;;;;;6187474;23;20428;-85
2021/07/12 08:57:32;;;;;;;6.80;4.20;;;26.80;83.10;;;;;;6187159;23;20395;-85
2021/07/12 08:59:59;;;;;;;5.37;4.10;;;26.80;83.00;;;;;;6187652;23;20397;-86
2021/07/12 09:05:56;;;;;;;3.93;3.63;;;26.80;82.90;;;;;;6185813;23;20974;-85
2021/07/12 09:08:41;;;;;;;4.50;4.07;;;26.80;83.10;;;;;;6186449;23;20387;-85
2021/07/12 09:11:28;;;;;;;4.77;4.10;;;26.80;83.00;;;;;;6188463;23;20400;-85
2021/07/12 09:14:00;;;;;;;5.53;4.00;;;26.80;83.10;;;;;;6194400;23;20502;-91
2021/07/12 09:16:33;;;;;;;4.33;4.03;;;26.80;83.10;;;;;;6161505;23;20413;-85
2021/07/12 09:19:08;;;;;;;4.80;4.30;;;26.80;83.10;;;;;;6186596;23;20889;-88
